createdAt,value
2019-02-22T00:01:21.145Z,5.88
2019-02-22T00:03:47.756Z,5.90
2019-02-22T00:06:13.965Z,5.90
2019-02-22T00:08:41.840Z,5.91
2019-02-22T00:11:08.905Z,5.90
2019-02-22T00:13:35.899Z,5.91
2019-02-22T00:16:02.094Z,5.90
2019-02-22T00:18:28.231Z,5.89
2019-02-22T00:20:56.811Z,5.94
2019-02-22T00:23:24.322Z,5.93
2019-02-22T00:25:50.524Z,5.93
2019-02-22T00:28:19.793Z,5.92
2019-02-22T00:30:48.885Z,5.94
2019-02-22T00:33:16.832Z,5.93
2019-02-22T00:35:43.032Z,5.97
2019-02-22T00:38:10.859Z,5.96
2019-02-22T00:40:37.044Z,5.97
2019-02-22T00:43:03.152Z,5.96
2019-02-22T00:45:29.369Z,5.97
2019-02-22T00:47:55.488Z,5.98
2019-02-22T00:50:21.677Z,5.97
2019-02-22T00:52:51.687Z,5.99
2019-02-22T00:55:17.901Z,6.05
2019-02-22T00:57:44.829Z,6.03
2019-02-22T01:00:11.034Z,6.05
2019-02-22T01:02:37.203Z,6.05
2019-02-22T01:05:05.893Z,6.03
2019-02-22T01:07:32.021Z,6.04
2019-02-22T01:09:58.220Z,6.06
2019-02-22T01:12:24.318Z,6.06
2019-02-22T01:14:53.733Z,6.07
2019-02-22T01:17:22.719Z,6.10
2019-02-22T01:19:48.932Z,6.08
2019-02-22T01:22:15.378Z,6.08
2019-02-22T01:24:41.576Z,6.11
2019-02-22T01:27:07.735Z,6.12
2019-02-22T01:29:33.944Z,6.12
2019-02-22T01:32:04.872Z,6.11
2019-02-22T01:34:31.089Z,6.11
2019-02-22T01:36:57.201Z,6.13
2019-02-22T01:39:23.939Z,6.12
2019-02-22T01:41:50.081Z,6.14
2019-02-22T01:44:17.833Z,6.14
2019-02-22T01:46:44.087Z,6.14
2019-02-22T01:49:10.345Z,6.15
2019-02-22T01:51:37.948Z,6.17
2019-02-22T01:54:05.893Z,6.17
2019-02-22T01:56:34.725Z,6.15
2019-02-22T01:59:04.751Z,6.13
2019-02-22T02:01:31.463Z,6.14
2019-02-22T02:03:57.916Z,6.17
2019-02-22T02:06:24.194Z,6.17
2019-02-22T02:08:50.389Z,6.16
2019-02-22T02:11:19.753Z,6.15
2019-02-22T02:13:45.967Z,6.15
2019-02-22T02:16:12.078Z,6.13
2019-02-22T02:18:38.284Z,6.19
2019-02-22T02:21:04.423Z,6.17
2019-02-22T02:23:31.915Z,6.17
2019-02-22T02:25:58.084Z,6.16
2019-02-22T02:28:24.315Z,6.14
2019-02-22T02:30:50.511Z,6.18
2019-02-22T02:33:18.031Z,6.17
2019-02-22T02:35:45.611Z,6.17
2019-02-22T02:38:14.815Z,6.18
2019-02-22T02:40:43.974Z,6.16
2019-02-22T02:43:10.973Z,6.19
2019-02-22T02:45:37.215Z,6.19
2019-02-22T02:48:03.457Z,6.19
2019-02-22T02:50:33.487Z,6.20
2019-02-22T02:52:59.701Z,6.21
2019-02-22T02:55:40.682Z,6.21
2019-02-22T02:58:06.870Z,6.22
2019-02-22T03:00:33.015Z,6.21
2019-02-22T03:02:59.154Z,6.22
2019-02-22T03:05:31.712Z,6.22
2019-02-22T03:08:02.902Z,6.21
2019-02-22T03:10:31.483Z,6.24
2019-02-22T03:12:57.209Z,6.22
2019-02-22T03:15:25.828Z,6.22
2019-02-22T03:17:54.912Z,6.24
2019-02-22T03:20:21.046Z,6.24
2019-02-22T03:22:47.197Z,6.25
2019-02-22T03:25:13.402Z,6.28
2019-02-22T03:27:40.603Z,6.28
2019-02-22T03:30:08.846Z,6.26
2019-02-22T03:32:37.009Z,6.29
2019-02-22T03:35:05.315Z,6.32
2019-02-22T03:37:32.609Z,6.28
2019-02-22T03:40:00.976Z,6.30
2019-02-22T03:42:30.903Z,6.33
2019-02-22T03:44:59.919Z,6.34
2019-02-22T03:47:26.012Z,6.31
2019-02-22T03:49:52.714Z,6.34
2019-02-22T03:52:25.714Z,6.35
2019-02-22T03:54:51.952Z,6.35
2019-02-22T03:57:18.052Z,6.36
2019-02-22T03:59:44.278Z,6.34
2019-02-22T04:02:10.496Z,6.34
2019-02-22T04:04:38.011Z,6.35
2019-02-22T04:07:04.213Z,6.38
2019-02-22T04:09:30.371Z,6.35
2019-02-22T04:11:56.611Z,6.34
2019-02-22T04:14:22.855Z,6.34
2019-02-22T04:16:49.059Z,6.34
2019-02-22T04:19:18.209Z,6.34
2019-02-22T04:21:47.023Z,6.35
2019-02-22T04:24:14.007Z,6.34
2019-02-22T04:26:43.933Z,6.34
2019-02-22T04:29:10.255Z,6.32
2019-02-22T04:31:36.378Z,6.32
2019-02-22T04:34:02.652Z,6.32
2019-02-22T04:36:28.853Z,6.28
2019-02-22T04:38:54.940Z,6.27
2019-02-22T04:41:21.116Z,6.28
2019-02-22T04:43:50.848Z,6.28
2019-02-22T04:46:18.282Z,6.30
2019-02-22T04:48:48.233Z,6.27
2019-02-22T04:51:17.445Z,6.29
2019-02-22T04:53:43.697Z,6.29
2019-02-22T04:56:09.908Z,6.28
2019-02-22T04:58:36.036Z,6.28
2019-02-22T05:01:02.222Z,6.30
2019-02-22T05:03:28.317Z,6.29
2019-02-22T05:05:54.576Z,6.26
2019-02-22T05:08:20.670Z,6.24
2019-02-22T05:10:52.855Z,6.25
2019-02-22T05:13:20.006Z,6.27
2019-02-22T05:15:46.259Z,6.27
2019-02-22T05:18:12.412Z,6.26
2019-02-22T05:20:38.643Z,6.25
2019-02-22T05:23:07.454Z,6.21
2019-02-22T05:25:32.847Z,6.22
2019-02-22T05:27:59.152Z,6.23
2019-02-22T05:30:25.399Z,6.21
2019-02-22T05:32:51.758Z,6.23
2019-02-22T05:35:18.023Z,6.23
2019-02-22T05:37:44.267Z,6.22
2019-02-22T05:40:10.464Z,6.24
2019-02-22T05:42:39.539Z,6.22
2019-02-22T05:45:05.938Z,6.21
2019-02-22T05:47:32.043Z,6.21
2019-02-22T05:49:58.241Z,6.25
2019-02-22T05:52:24.382Z,6.25
2019-02-22T05:54:50.747Z,6.26
2019-02-22T05:57:17.945Z,6.27
2019-02-22T05:59:44.104Z,6.26
2019-02-22T06:02:10.389Z,6.24
2019-02-22T06:04:37.261Z,6.24
2019-02-22T06:07:03.538Z,6.22
2019-02-22T06:09:29.766Z,6.23
2019-02-22T06:11:59.572Z,6.23
2019-02-22T06:14:26.436Z,6.25
2019-02-22T06:16:52.890Z,6.25
2019-02-22T06:19:20.705Z,6.28
2019-02-22T06:21:47.340Z,6.25
2019-02-22T06:24:14.234Z,6.23
2019-02-22T06:26:40.810Z,6.21
2019-02-22T06:29:07.041Z,6.21
2019-02-22T06:31:34.831Z,6.19
2019-02-22T06:34:04.143Z,6.18
2019-02-22T06:36:30.221Z,6.18
2019-02-22T06:38:56.421Z,6.17
2019-02-22T06:41:24.000Z,6.17
2019-02-22T06:43:50.217Z,6.15
2019-02-22T06:46:17.977Z,6.13
2019-02-22T06:48:44.424Z,6.13
2019-02-22T06:51:10.578Z,6.15
2019-02-22T06:53:39.959Z,6.18
2019-02-22T06:56:07.971Z,6.18
2019-02-22T06:58:34.296Z,6.16
2019-02-22T07:01:00.404Z,6.13
2019-02-22T07:03:26.615Z,6.12
2019-02-22T07:05:52.717Z,6.13
2019-02-22T07:08:19.014Z,6.14
2019-02-22T07:10:47.151Z,6.15
2019-02-22T07:13:13.383Z,6.12
2019-02-22T07:15:39.485Z,6.11
2019-02-22T07:18:05.680Z,6.12
2019-02-22T07:20:38.234Z,6.12
2019-02-22T07:23:04.871Z,6.13
2019-02-22T07:25:31.093Z,6.10
2019-02-22T07:27:57.310Z,6.08
2019-02-22T07:30:23.952Z,6.07
2019-02-22T07:32:54.352Z,6.07
2019-02-22T07:35:20.732Z,6.06
2019-02-22T07:37:49.127Z,6.05
2019-02-22T07:40:15.262Z,6.06
2019-02-22T07:42:43.084Z,6.06
2019-02-22T07:45:09.515Z,6.04
2019-02-22T07:47:35.698Z,6.04
2019-02-22T07:50:01.904Z,6.01
2019-02-22T07:52:28.682Z,6.00
2019-02-22T07:54:55.822Z,5.99
2019-02-22T07:57:22.387Z,5.99
2019-02-22T07:59:49.020Z,5.98
2019-02-22T08:02:15.511Z,5.99
2019-02-22T08:04:42.071Z,6.00
2019-02-22T08:07:08.399Z,6.03
2019-02-22T08:09:34.734Z,6.07
2019-02-22T08:12:00.982Z,6.10
2019-02-22T08:14:32.329Z,6.05
2019-02-22T08:16:58.568Z,6.03
2019-02-22T08:19:35.360Z,6.03
2019-02-22T08:22:11.280Z,6.03
2019-02-22T08:24:42.169Z,6.03
2019-02-22T08:27:12.307Z,6.05
2019-02-22T08:42:39.814Z,6.45
2019-02-22T08:45:10.060Z,6.29
2019-02-22T08:47:36.520Z,6.27
2019-02-22T08:50:04.328Z,6.28
2019-02-22T08:52:30.637Z,6.24
2019-02-22T08:54:56.884Z,6.23
2019-02-22T08:57:23.255Z,6.21
2019-02-22T08:59:49.496Z,6.22
2019-02-22T09:02:19.402Z,6.19
2019-02-22T09:04:47.058Z,6.15
2019-02-22T09:07:13.447Z,6.13
2019-02-22T09:09:39.715Z,6.13
2019-02-22T09:12:06.048Z,6.10
2019-02-22T09:14:40.284Z,6.07
2019-02-22T09:17:09.198Z,6.06
2019-02-22T09:19:35.692Z,6.02
2019-02-22T09:22:01.932Z,6.01
2019-02-22T09:24:28.156Z,6.01
2019-02-22T09:26:54.259Z,5.98
2019-02-22T09:29:20.505Z,5.98
2019-02-22T09:31:46.706Z,5.98
2019-02-22T09:34:13.095Z,5.97
2019-02-22T09:36:40.334Z,6.00
2019-02-22T09:39:06.544Z,6.01
2019-02-22T09:41:33.470Z,6.00
2019-02-22T09:44:02.750Z,5.99
2019-02-22T09:46:28.887Z,5.94
2019-02-22T09:48:55.109Z,5.91
2019-02-22T09:51:21.204Z,5.82
2019-02-22T09:53:51.003Z,5.67
2019-02-22T09:56:17.465Z,5.56
2019-02-22T09:58:48.127Z,5.53
2019-02-22T10:01:14.328Z,5.43
2019-02-22T10:03:40.529Z,5.33
2019-02-22T10:06:06.688Z,5.28
2019-02-22T10:08:35.559Z,5.25
2019-02-22T10:11:01.658Z,5.26
2019-02-22T10:13:28.011Z,5.27
2019-02-22T10:15:54.376Z,5.30
2019-02-22T10:18:21.558Z,5.31
2019-02-22T10:20:48.105Z,5.30
2019-02-22T10:23:14.357Z,5.28
2019-02-22T10:25:41.367Z,5.25
2019-02-22T10:28:17.322Z,5.22
2019-02-22T10:30:38.812Z,5.21
2019-02-22T10:33:05.863Z,5.22
2019-02-22T10:35:32.898Z,5.16
2019-02-22T10:38:00.306Z,5.12
2019-02-22T10:40:29.418Z,5.07
2019-02-22T10:42:57.229Z,5.05
2019-02-22T10:45:24.243Z,5.01
2019-02-22T10:47:51.340Z,4.97
2019-02-22T10:50:17.545Z,4.99
2019-02-22T10:52:43.739Z,5.00
2019-02-22T10:55:11.454Z,5.00
2019-02-22T10:57:37.787Z,5.00
2019-02-22T11:00:10.015Z,4.97
2019-02-22T11:02:36.320Z,4.95
2019-02-22T11:05:02.412Z,4.96
2019-02-22T11:07:30.544Z,4.96
2019-02-22T11:09:56.664Z,5.00
2019-02-22T11:12:22.891Z,5.03
2019-02-22T11:14:49.055Z,5.06
2019-02-22T11:17:15.260Z,5.09
2019-02-22T11:19:45.693Z,5.15
2019-02-22T11:22:09.672Z,5.09
2019-02-22T11:24:37.688Z,5.06
2019-02-22T11:27:04.764Z,5.00
2019-02-22T11:29:41.218Z,4.93
2019-02-22T11:32:08.706Z,4.83
2019-02-22T11:35:05.987Z,4.77
2019-02-22T11:37:32.331Z,4.72
2019-02-22T11:39:58.482Z,4.69
2019-02-22T11:42:24.687Z,4.74
2019-02-22T11:44:51.029Z,4.83
2019-02-22T11:47:17.248Z,4.88
2019-02-22T11:49:43.612Z,5.06
2019-02-22T11:52:18.760Z,5.21
2019-02-22T11:54:45.256Z,5.35
2019-02-22T11:57:11.500Z,5.40
2019-02-22T11:59:37.605Z,5.34
2019-02-22T12:02:03.819Z,5.27
2019-02-22T12:04:30.137Z,5.25
2019-02-22T12:06:56.345Z,5.24
2019-02-22T12:09:22.540Z,5.14
2019-02-22T12:11:48.877Z,5.04
2019-02-22T12:14:15.397Z,4.96
2019-02-22T12:16:42.604Z,4.81
2019-02-22T12:19:08.808Z,4.67
2019-02-22T12:21:35.082Z,4.61
2019-02-22T12:24:01.381Z,4.60
2019-02-22T12:26:27.632Z,4.60
2019-02-22T12:28:53.854Z,4.58
2019-02-22T12:31:20.081Z,4.58
2019-02-22T12:33:46.374Z,4.61
2019-02-22T12:36:12.667Z,4.60
2019-02-22T12:38:38.897Z,4.61
2019-02-22T12:41:10.867Z,4.60
2019-02-22T12:43:39.061Z,4.60
2019-02-22T12:46:05.205Z,4.60
2019-02-22T12:48:31.427Z,4.57
2019-02-22T12:50:57.614Z,4.50
2019-02-22T12:53:23.841Z,4.47
2019-02-22T12:55:49.968Z,4.43
2019-02-22T12:58:16.227Z,4.40
2019-02-22T13:00:42.294Z,4.41
2019-02-22T13:03:08.599Z,4.43
2019-02-22T13:05:34.962Z,4.46
2019-02-22T13:08:01.129Z,4.48
2019-02-22T13:10:27.284Z,4.48
2019-02-22T13:12:53.493Z,4.47
2019-02-22T13:15:19.630Z,4.41
2019-02-22T13:17:46.185Z,4.35
2019-02-22T13:20:16.952Z,4.31
2019-02-22T13:25:46.403Z,4.05
2019-02-22T13:28:12.620Z,4.05
2019-02-22T13:30:38.931Z,4.05
2019-02-22T13:33:05.133Z,4.08
2019-02-22T13:35:31.372Z,4.18
2019-02-22T13:37:58.867Z,4.21
2019-02-22T13:40:52.493Z,4.17
2019-02-22T13:43:18.556Z,4.11
2019-02-22T13:47:37.223Z,4.02
2019-02-22T13:48:32.376Z,3.96
2019-02-22T13:50:58.840Z,3.91
2019-02-22T13:53:31.993Z,3.92
2019-02-22T13:56:08.241Z,3.88
2019-02-22T13:58:41.518Z,3.84
2019-02-22T14:03:58.488Z,3.79
2019-02-22T14:06:35.530Z,3.79
2019-02-22T14:12:15.859Z,3.70
2019-02-22T14:14:42.023Z,3.65
2019-02-22T14:17:08.420Z,3.63
2019-02-22T14:19:42.501Z,3.59
2019-02-22T14:22:08.614Z,3.58
2019-02-22T14:24:34.943Z,3.52
2019-02-22T14:27:02.020Z,3.44
2019-02-22T14:29:28.617Z,3.33
2019-02-22T14:31:55.061Z,3.28
2019-02-22T14:34:21.320Z,3.17
2019-02-22T14:36:47.879Z,3.13
2019-02-22T14:39:15.148Z,3.11
2019-02-22T14:41:41.422Z,3.09
2019-02-22T14:44:09.941Z,3.08
2019-02-22T14:46:36.175Z,3.09
2019-02-22T14:49:02.342Z,3.09
2019-02-22T14:51:28.494Z,3.11
2019-02-22T14:53:54.638Z,3.10
2019-02-22T14:56:20.908Z,3.07
2019-02-22T14:58:47.503Z,3.02
2019-02-22T15:01:13.654Z,2.92
2019-02-22T15:03:39.819Z,2.79
2019-02-22T15:06:05.955Z,2.68
2019-02-22T15:08:32.258Z,2.66
2019-02-22T15:10:58.409Z,2.67
2019-02-22T15:13:24.530Z,2.67
2019-02-22T15:16:07.742Z,2.67
2019-02-22T15:18:33.996Z,2.66
2019-02-22T15:21:00.202Z,2.68
2019-02-22T15:23:27.473Z,2.68
2019-02-22T15:25:54.045Z,2.66
2019-02-22T15:28:20.254Z,2.64
2019-02-22T15:30:46.762Z,2.57
2019-02-22T15:33:12.985Z,2.54
2019-02-22T15:35:39.230Z,2.53
2019-02-22T15:38:06.787Z,2.50
2019-02-22T15:40:39.296Z,2.46
2019-02-22T15:43:05.038Z,2.32
2019-02-22T15:45:31.232Z,2.25
2019-02-22T15:47:57.698Z,2.19
2019-02-22T15:50:23.923Z,2.11
2019-02-22T15:52:50.408Z,2.09
2019-02-22T15:55:16.687Z,2.09
2019-02-22T15:57:42.863Z,1.98
2019-02-22T16:00:18.550Z,1.92
2019-02-22T16:02:44.895Z,1.94
2019-02-22T16:05:13.200Z,1.94
2019-02-22T16:07:44.726Z,1.96
2019-02-22T16:10:08.593Z,1.98
2019-02-22T16:12:36.610Z,2.00
2019-02-22T16:15:05.682Z,2.01
2019-02-22T16:17:32.552Z,2.01
2019-02-22T16:19:59.691Z,1.99
2019-02-22T16:22:25.855Z,1.99
2019-02-22T16:24:52.043Z,1.98
2019-02-22T16:27:18.336Z,1.98
2019-02-22T16:29:44.447Z,1.94
2019-02-22T16:32:10.675Z,1.87
2019-02-22T16:34:43.504Z,1.68
2019-02-22T16:37:05.014Z,1.61
2019-02-22T16:39:31.172Z,1.62
2019-02-22T16:41:57.373Z,1.63
2019-02-22T16:44:23.481Z,1.64
2019-02-22T16:46:49.687Z,1.62
2019-02-22T16:49:15.785Z,1.64
2019-02-22T16:51:42.032Z,1.60
2019-02-22T16:54:08.120Z,1.60
2019-02-22T16:56:34.322Z,1.58
2019-02-22T16:59:00.492Z,1.58
2019-02-22T17:01:27.793Z,1.58
2019-02-22T17:03:54.191Z,1.50
2019-02-22T17:06:20.440Z,1.44
2019-02-22T17:08:47.738Z,1.45
2019-02-22T17:11:15.337Z,1.43
2019-02-22T17:13:41.720Z,1.39
2019-02-22T17:16:08.233Z,1.42
2019-02-22T17:18:38.388Z,1.41
2019-02-22T17:21:05.110Z,1.42
2019-02-22T17:23:33.436Z,1.35
2019-02-22T17:25:59.614Z,1.28
2019-02-22T17:28:25.739Z,1.22
2019-02-22T17:30:51.923Z,1.20
2019-02-22T17:33:18.046Z,1.19
2019-02-22T17:35:45.006Z,1.19
2019-02-22T17:38:14.316Z,1.23
2019-02-22T17:40:40.501Z,1.21
2019-02-22T17:43:06.741Z,1.21
2019-02-22T17:45:33.739Z,1.14
2019-02-22T17:48:00.276Z,1.14
2019-02-22T17:50:26.487Z,1.08
2019-02-22T17:52:52.740Z,1.06
2019-02-22T17:55:21.721Z,1.03
2019-02-22T17:57:48.680Z,0.92
2019-02-22T18:00:23.927Z,0.90
2019-02-22T18:02:50.117Z,0.89
2019-02-22T18:05:16.205Z,0.86
2019-02-22T18:07:42.402Z,0.89
2019-02-22T18:10:09.500Z,0.84
2019-02-22T18:12:36.366Z,0.81
2019-02-22T18:15:04.506Z,0.75
2019-02-22T18:17:30.704Z,0.74
2019-02-22T18:19:57.415Z,0.73
2019-02-22T18:22:26.253Z,0.69
2019-02-22T18:24:52.528Z,0.67
2019-02-22T18:27:22.443Z,0.65
2019-02-22T18:29:48.693Z,0.49
2019-02-22T18:32:15.755Z,0.39
2019-02-22T18:34:42.748Z,0.18
2019-02-22T18:37:10.092Z,0.10
2019-02-22T18:39:36.306Z,0.05
2019-02-22T18:42:05.412Z,-0.03
2019-02-22T18:44:31.623Z,-0.02
2019-02-22T18:46:57.732Z,0.04
2019-02-22T18:49:23.896Z,0.09
2019-02-22T18:51:50.265Z,0.01
2019-02-22T18:54:16.750Z,-0.08
2019-02-22T18:56:42.942Z,-0.02
2019-02-22T18:59:09.212Z,0.07
2019-02-22T19:01:37.343Z,0.05
2019-02-22T19:04:03.758Z,-0.03
2019-02-22T19:06:30.607Z,-0.16
2019-02-22T19:08:56.851Z,-0.22
2019-02-22T19:11:23.487Z,-0.32
2019-02-22T19:13:53.671Z,-0.43
2019-02-22T19:16:21.802Z,-0.57
2019-02-22T19:18:49.983Z,-0.66
2019-02-22T19:21:16.211Z,-0.73
2019-02-22T19:23:42.398Z,-0.78
2019-02-22T19:26:08.504Z,-0.83
2019-02-22T19:28:35.202Z,-0.85
2019-02-22T19:31:01.308Z,-0.86
2019-02-22T19:33:27.495Z,-0.83
2019-02-22T19:35:53.581Z,-0.80
2019-02-22T19:38:20.532Z,-0.76
2019-02-22T19:40:48.190Z,-0.70
2019-02-22T19:43:17.531Z,-0.66
2019-02-22T19:45:43.623Z,-0.59
2019-02-22T19:48:11.559Z,-0.58
2019-02-22T19:50:41.415Z,-0.57
2019-02-22T19:53:06.016Z,-0.49
2019-02-22T19:55:32.107Z,-0.44
2019-02-22T19:57:58.296Z,-0.42
2019-02-22T20:00:26.426Z,-0.41
2019-02-22T20:02:52.640Z,-0.42
2019-02-22T20:05:18.838Z,-0.43
2019-02-22T20:07:45.097Z,-0.53
2019-02-22T20:10:19.365Z,-0.54
2019-02-22T20:12:47.741Z,-0.55
2019-02-22T20:15:15.737Z,-0.62
2019-02-22T20:17:53.007Z,-0.77
2019-02-22T20:20:12.792Z,-0.87
2019-02-22T20:22:39.002Z,-0.97
2019-02-22T20:25:05.668Z,-1.07
2019-02-22T20:27:33.058Z,-1.16
2019-02-22T20:30:01.246Z,-1.23
2019-02-22T20:32:27.946Z,-1.28
2019-02-22T20:34:54.169Z,-1.33
2019-02-22T20:37:20.722Z,-1.37
2019-02-22T20:39:50.765Z,-1.44
2019-02-22T20:42:19.153Z,-1.49
2019-02-22T20:44:46.595Z,-1.55
2019-02-22T20:47:12.782Z,-1.61
2019-02-22T20:49:39.280Z,-1.65
2019-02-22T20:52:06.494Z,-1.66
2019-02-22T20:54:32.707Z,-1.68
2019-02-22T20:57:00.816Z,-1.69
2019-02-22T20:59:30.753Z,-1.69
2019-02-22T21:01:57.294Z,-1.72
2019-02-22T21:04:23.595Z,-1.78
2019-02-22T21:06:49.700Z,-1.81
2019-02-22T21:09:15.879Z,-1.88
2019-02-22T21:11:42.094Z,-1.91
2019-02-22T21:14:11.374Z,-1.95
2019-02-22T21:16:37.905Z,-2.01
2019-02-22T21:19:06.093Z,-2.06
2019-02-22T21:21:32.320Z,-2.10
2019-02-22T21:23:58.502Z,-2.15
2019-02-22T21:26:26.229Z,-2.19
2019-02-22T21:28:52.507Z,-2.21
2019-02-22T21:31:18.597Z,-2.23
2019-02-22T21:33:44.840Z,-2.23
2019-02-22T21:36:10.945Z,-2.26
2019-02-22T21:38:37.136Z,-2.30
2019-02-22T21:41:03.245Z,-2.35
2019-02-22T21:43:31.333Z,-2.39
2019-02-22T21:46:01.673Z,-2.39
2019-02-22T21:48:31.230Z,-2.41
2019-02-22T21:51:00.499Z,-2.44
2019-02-22T21:53:26.951Z,-2.47
2019-02-22T21:55:53.139Z,-2.53
2019-02-22T21:58:19.353Z,-2.55
2019-02-22T22:00:45.567Z,-2.57
2019-02-22T22:03:11.689Z,-2.62
2019-02-22T22:05:37.889Z,-2.67
2019-02-22T22:08:04.970Z,-2.68
2019-02-22T22:10:31.367Z,-2.68
2019-02-22T22:12:57.443Z,-2.72
2019-02-22T22:15:23.649Z,-2.77
2019-02-22T22:17:49.740Z,-2.78
2019-02-22T22:20:16.349Z,-2.79
2019-02-22T22:22:42.495Z,-2.81
2019-02-22T22:25:12.725Z,-2.83
2019-02-22T22:27:38.909Z,-2.86
2019-02-22T22:30:07.815Z,-2.89
2019-02-22T22:32:33.999Z,-2.87
2019-02-22T22:35:00.342Z,-2.91
2019-02-22T22:37:27.139Z,-2.92
2019-02-22T22:39:53.395Z,-2.96
2019-02-22T22:42:20.388Z,-3.00
2019-02-22T22:44:46.941Z,-3.01
2019-02-22T22:47:13.087Z,-3.03
2019-02-22T22:49:39.227Z,-3.04
2019-02-22T22:52:05.627Z,-3.07
2019-02-22T22:54:32.867Z,-3.08
2019-02-22T22:56:59.357Z,-3.11
2019-02-22T22:59:27.720Z,-3.13
2019-02-22T23:01:54.623Z,-3.18
2019-02-22T23:04:20.801Z,-3.22
2019-02-22T23:06:47.142Z,-3.22
2019-02-22T23:09:20.144Z,-3.21
2019-02-22T23:11:46.809Z,-3.20
2019-02-22T23:14:13.039Z,-3.23
2019-02-22T23:16:39.266Z,-3.26
2019-02-22T23:19:05.380Z,-3.28
2019-02-22T23:21:31.669Z,-3.30
2019-02-22T23:23:57.930Z,-3.33
2019-02-22T23:26:24.210Z,-3.34
2019-02-22T23:28:50.305Z,-3.35
2019-02-22T23:31:16.568Z,-3.36
2019-02-22T23:33:42.692Z,-3.39
2019-02-22T23:36:08.867Z,-3.40
2019-02-22T23:38:36.054Z,-3.40
2019-02-22T23:41:02.257Z,-3.41
2019-02-22T23:43:29.307Z,-3.42
2019-02-22T23:45:55.515Z,-3.43
2019-02-22T23:48:21.666Z,-3.44
2019-02-22T23:50:47.898Z,-3.45
2019-02-22T23:53:14.141Z,-3.47
2019-02-22T23:55:40.296Z,-3.49
2019-02-22T23:58:06.438Z,-3.50
